Time;durP1;ratioP1;P1;durP2;ratioP2;P2;SDS_P1;SDS_P2;PMS_P1;PMS_P2;Temp;Humidity;BMP_temperature;BMP_pressure;BME280_temperature;BME280_humidity;BME280_pressure;Samples;Min_cycle;Max_cycle;Signal;HPM_P1;HPM_P2
2022/07/12 00:00:37;;;;;;;;;6.00;5.00;;;;;23.41;51.81;101158.30;110159;1265;18698;-68
2022/07/12 00:03:05;;;;;;;;;5.00;5.00;;;;;23.42;51.71;101154.57;110165;1264;20584;-66
2022/07/12 00:05:32;;;;;;;;;5.00;5.00;;;;;23.43;51.67;101153.55;110200;1265;18439;-66
2022/07/12 00:07:59;;;;;;;;;3.00;3.00;;;;;23.42;51.66;101152.34;110188;1264;22229;-66
2022/07/12 00:10:27;;;;;;;;;5.00;5.00;;;;;23.42;51.65;101153.83;110144;1265;19526;-65
2022/07/12 00:12:54;;;;;;;;;6.00;5.00;;;;;23.42;51.79;101152.34;110145;1265;20047;-65
2022/07/12 00:15:21;;;;;;;;;5.67;5.00;;;;;23.43;51.63;101148.79;110198;1265;19185;-65
2022/07/12 00:17:48;;;;;;;;;6.00;5.50;;;;;23.42;51.53;101148.55;110151;1264;19714;-65
2022/07/12 00:20:16;;;;;;;;;5.67;5.00;;;;;23.42;51.62;101145.41;110140;1265;21062;-67
2022/07/12 00:22:43;;;;;;;;;5.00;5.00;;;;;23.42;51.59;101147.77;110140;1265;22167;-67
2022/07/12 00:25:10;;;;;;;;;3.00;3.00;;;;;23.42;51.53;101147.77;110096;1265;19537;-63
2022/07/12 00:27:37;;;;;;;;;3.00;3.00;;;;;23.43;51.71;101148.09;110190;1264;19032;-64
2022/07/12 00:30:05;;;;;;;;;5.00;5.00;;;;;23.42;51.54;101143.19;110172;1264;19856;-66
2022/07/12 00:32:32;;;;;;;;;7.00;6.00;;;;;23.42;51.36;101143.10;109995;1265;19845;-66
2022/07/12 00:34:59;;;;;;;;;7.00;6.00;;;;;23.43;51.46;101148.25;110169;1264;18402;-65
2022/07/12 00:37:26;;;;;;;;;4.33;3.00;;;;;23.43;51.53;101144.07;110263;1264;21176;-66
2022/07/12 00:39:53;;;;;;;;;6.00;6.00;;;;;23.42;51.29;101143.77;110155;1265;19623;-65
2022/07/12 00:42:21;;;;;;;;;3.67;3.67;;;;;23.42;51.32;101146.39;110174;1264;23195;-66
2022/07/12 00:44:48;;;;;;;;;3.00;3.00;;;;;23.41;51.39;101150.98;110125;1263;18855;-66
2022/07/12 00:47:15;;;;;;;;;5.00;5.00;;;;;23.43;51.33;101149.20;110126;1264;19630;-66
2022/07/12 00:49:42;;;;;;;;;5.67;5.67;;;;;23.42;51.34;101145.55;110159;1265;18475;-66
2022/07/12 00:52:10;;;;;;;;;3.00;3.00;;;;;23.42;51.15;101147.60;110144;1265;20186;-66
2022/07/12 00:54:37;;;;;;;;;6.00;5.00;;;;;23.42;51.26;101148.14;110215;1265;19640;-67
2022/07/12 00:57:05;;;;;;;;;5.33;5.33;;;;;23.42;51.28;101152.14;110209;1265;18442;-66
2022/07/12 00:59:32;;;;;;;;;5.00;5.00;;;;;23.41;51.33;101154.16;110154;1265;22756;-67
2022/07/12 01:01:59;;;;;;;;;5.00;5.00;;;;;23.41;51.46;101152.82;110125;1265;21712;-64
2022/07/12 01:04:26;;;;;;;;;3.67;3.67;;;;;23.41;51.25;101151.73;110125;1264;20191;-65
2022/07/12 01:06:54;;;;;;;;;6.00;5.67;;;;;23.41;51.11;101151.70;110187;1265;19061;-66
2022/07/12 01:09:21;;;;;;;;;6.00;5.00;;;;;23.42;51.22;101148.75;110162;1265;21735;-65
2022/07/12 01:11:48;;;;;;;;;5.00;5.00;;;;;23.41;51.13;101148.05;110172;1265;18994;-65
2022/07/12 01:14:15;;;;;;;;;5.00;3.67;;;;;23.42;51.22;101146.70;110192;1265;18760;-66
2022/07/12 01:16:43;;;;;;;;;3.00;3.00;;;;;23.43;51.00;101147.56;110245;1264;19847;-67
2022/07/12 01:19:10;;;;;;;;;7.00;6.50;;;;;23.43;51.02;101146.40;110127;1265;18598;-65
2022/07/12 01:21:37;;;;;;;;;5.00;5.00;;;;;23.44;50.97;101145.56;110281;1264;20467;-64
2022/07/12 01:24:04;;;;;;;;;3.00;3.00;;;;;23.45;50.97;101147.81;110124;1264;19571;-66
2022/07/12 01:26:32;;;;;;;;;5.00;5.00;;;;;23.45;51.00;101147.60;110196;1264;18742;-65
2022/07/12 01:28:59;;;;;;;;;5.00;5.00;;;;;23.43;50.90;101150.94;110093;1265;19209;-66
2022/07/12 01:31:26;;;;;;;;;6.00;5.00;;;;;23.43;51.00;101145.64;110145;1264;22836;-68
2022/07/12 01:33:53;;;;;;;;;6.00;6.00;;;;;23.44;50.87;101151.55;110243;1265;18540;-66
2022/07/12 01:36:21;;;;;;;;;3.00;3.00;;;;;23.44;50.93;101150.11;110136;1265;18928;-64
2022/07/12 01:38:48;;;;;;;;;5.00;5.00;;;;;23.45;50.74;101149.27;110094;1265;19846;-63
2022/07/12 01:41:15;;;;;;;;;5.00;5.00;;;;;23.44;50.83;101146.24;110144;1265;19163;-66
2022/07/12 01:43:43;;;;;;;;;3.00;3.00;;;;;23.43;50.69;101144.59;110147;1265;18766;-64
2022/07/12 01:46:10;;;;;;;;;5.00;5.00;;;;;23.44;50.77;101144.17;110123;1265;19773;-66
2022/07/12 01:48:38;;;;;;;;;6.00;5.00;;;;;23.43;50.79;101141.00;110259;1264;20683;-68
2022/07/12 01:51:05;;;;;;;;;3.00;3.00;;;;;23.44;50.72;101136.82;110143;1265;18756;-67
2022/07/12 01:53:32;;;;;;;;;5.00;5.00;;;;;23.45;50.63;101136.70;110173;1265;20018;-65
2022/07/12 01:56:00;;;;;;;;;5.67;5.33;;;;;23.45;50.81;101134.89;110120;1266;20019;-67
2022/07/12 01:58:27;;;;;;;;;5.00;5.00;;;;;23.43;50.65;101134.11;110164;1265;22781;-65
2022/07/12 02:00:54;;;;;;;;;3.00;3.00;;;;;23.44;50.65;101130.63;110164;1265;19564;-66
2022/07/12 02:03:22;;;;;;;;;5.67;5.67;;;;;23.43;50.62;101130.73;110185;1265;18561;-65
2022/07/12 02:05:49;;;;;;;;;6.00;5.00;;;;;23.42;50.72;101134.66;110174;1265;18902;-64
2022/07/12 02:08:16;;;;;;;;;3.00;3.00;;;;;23.42;50.58;101135.80;110139;1265;19437;-64
2022/07/12 02:10:43;;;;;;;;;5.33;5.00;;;;;23.43;50.60;101135.96;110182;1264;21613;-66
2022/07/12 02:13:11;;;;;;;;;3.00;3.00;;;;;23.44;50.61;101133.57;110128;1265;18826;-65
2022/07/12 02:15:39;;;;;;;;;3.67;3.67;;;;;23.43;50.48;101127.21;110229;1265;21880;-67
2022/07/12 02:18:07;;;;;;;;;5.00;5.00;;;;;23.43;50.42;101132.52;110128;1265;20057;-66
2022/07/12 02:20:34;;;;;;;;;5.00;5.00;;;;;23.44;50.46;101125.54;110146;1264;18853;-65
2022/07/12 02:23:01;;;;;;;;;5.67;5.00;;;;;23.43;50.30;101122.29;110206;1264;19934;-66
2022/07/12 02:25:28;;;;;;;;;5.00;5.00;;;;;23.42;50.46;101121.70;110133;1264;18481;-66
2022/07/12 02:27:56;;;;;;;;;3.67;3.00;;;;;23.41;50.38;101117.26;110154;1265;18720;-65
2022/07/12 02:30:23;;;;;;;;;4.33;3.00;;;;;23.41;50.37;101117.46;110202;1264;19715;-65
2022/07/12 02:32:50;;;;;;;;;5.00;5.00;;;;;23.41;50.41;101115.63;110185;1264;18523;-65
2022/07/12 02:35:17;;;;;;;;;6.00;3.00;;;;;23.42;50.42;101112.23;110158;1265;22910;-67
2022/07/12 02:37:45;;;;;;;;;3.00;3.00;;;;;23.42;50.34;101110.59;110186;1265;19567;-65
2022/07/12 02:42:58;;;;;;;;;5.00;3.00;;;;;23.43;50.34;101112.23;110226;1264;19652;-66
2022/07/12 02:45:25;;;;;;;;;6.00;5.33;;;;;23.44;50.18;101112.66;110180;1265;19772;-66
2022/07/12 02:47:52;;;;;;;;;3.67;3.67;;;;;23.43;50.29;101113.36;110138;1267;18450;-65
2022/07/12 02:50:20;;;;;;;;;6.33;5.00;;;;;23.43;50.18;101111.09;110078;1267;22904;-65
2022/07/12 02:52:47;;;;;;;;;3.00;3.00;;;;;23.43;50.25;101110.35;110143;1265;22831;-67
2022/07/12 02:55:14;;;;;;;;;3.67;3.67;;;;;23.43;50.19;101112.66;110105;1265;20815;-67
2022/07/12 02:57:41;;;;;;;;;3.00;3.00;;;;;23.43;50.18;101109.95;110216;1265;18767;-66
2022/07/12 03:00:09;;;;;;;;;4.33;3.00;;;;;23.42;50.06;101113.27;110155;1265;20726;-65
2022/07/12 03:02:36;;;;;;;;;6.00;6.00;;;;;23.43;50.17;101116.34;110147;1265;18634;-66
2022/07/12 03:05:03;;;;;;;;;6.00;5.00;;;;;23.41;50.24;101115.95;110151;1264;18867;-65
2022/07/12 03:07:31;;;;;;;;;6.33;5.33;;;;;23.42;50.15;101118.66;110229;1264;19629;-65
2022/07/12 03:09:58;;;;;;;;;5.00;5.00;;;;;23.42;50.11;101120.23;110208;1265;18460;-66
2022/07/12 03:12:25;;;;;;;;;3.00;3.00;;;;;23.43;50.03;101117.65;110205;1264;19026;-67
2022/07/12 03:14:53;;;;;;;;;5.00;5.00;;;;;23.42;49.94;101117.64;110186;1264;19519;-66
2022/07/12 03:17:20;;;;;;;;;3.00;3.00;;;;;23.42;50.13;101124.79;110160;1264;20706;-67
2022/07/12 03:19:48;;;;;;;;;5.00;5.00;;;;;23.41;49.92;101121.27;110153;1265;18807;-66
2022/07/12 03:22:15;;;;;;;;;5.00;5.00;;;;;23.41;50.09;101122.14;110204;1264;20831;-66
2022/07/12 03:24:42;;;;;;;;;3.67;3.67;;;;;23.41;50.04;101120.37;110106;1265;19457;-64
2022/07/12 03:27:10;;;;;;;;;5.00;5.00;;;;;23.42;50.01;101123.41;110177;1265;21791;-62
2022/07/12 03:29:37;;;;;;;;;5.00;5.00;;;;;23.41;49.91;101123.66;110121;1265;22761;-65
2022/07/12 03:32:05;;;;;;;;;5.00;5.00;;;;;23.41;49.91;101124.63;110180;1264;18432;-66
2022/07/12 03:34:33;;;;;;;;;5.00;4.33;;;;;23.42;50.03;101121.77;110152;1265;18692;-66
2022/07/12 03:37:00;;;;;;;;;5.00;5.00;;;;;23.43;50.00;101128.76;110163;1265;21688;-67
2022/07/12 03:39:27;;;;;;;;;3.00;3.00;;;;;23.42;50.06;101130.09;110247;1264;24185;-65
2022/07/12 03:41:54;;;;;;;;;5.00;5.00;;;;;23.42;49.83;101132.23;110186;1264;18752;-67
2022/07/12 03:44:22;;;;;;;;;5.00;4.00;;;;;23.42;49.89;101129.91;110164;1265;20044;-66
2022/07/12 03:46:49;;;;;;;;;3.67;3.00;;;;;23.42;49.73;101125.89;110192;1265;19895;-66
2022/07/12 03:49:16;;;;;;;;;5.00;3.67;;;;;23.42;49.94;101122.09;110141;1264;18728;-67
2022/07/12 03:51:43;;;;;;;;;5.00;5.00;;;;;23.42;49.84;101121.88;110252;1264;20173;-66
2022/07/12 03:54:11;;;;;;;;;6.00;5.00;;;;;23.43;49.80;101123.80;110132;1266;18580;-65
2022/07/12 03:59:23;;;;;;;;;4.00;3.00;;;;;23.43;49.83;101119.92;110074;1267;20609;-65
2022/07/12 04:01:50;;;;;;;;;5.00;5.00;;;;;23.44;49.78;101118.04;110143;1267;18436;-64
2022/07/12 04:04:17;;;;;;;;;6.00;6.00;;;;;23.44;49.81;101116.91;110126;1265;18814;-61
2022/07/12 04:06:45;;;;;;;;;5.00;5.00;;;;;23.44;49.72;101114.72;110112;1267;19535;-62
2022/07/12 04:09:13;;;;;;;;;5.00;5.00;;;;;23.44;49.82;101109.04;110157;1268;18470;-63
2022/07/12 04:11:41;;;;;;;;;5.00;5.00;;;;;23.44;49.92;101106.84;110074;1267;18750;-66
2022/07/12 04:14:08;;;;;;;;;3.67;3.67;;;;;23.44;49.74;101109.20;110109;1264;21714;-64
2022/07/12 04:16:35;;;;;;;;;5.00;5.00;;;;;23.44;49.78;101112.86;110108;1265;18628;-65
2022/07/12 04:19:02;;;;;;;;;6.67;5.00;;;;;23.46;49.82;101116.54;110133;1265;18823;-67
2022/07/12 04:21:29;;;;;;;;;5.67;5.00;;;;;23.47;49.80;101114.95;110135;1267;19657;-65
2022/07/12 04:23:57;;;;;;;;;3.00;3.00;;;;;23.47;49.88;101111.64;110141;1266;18510;-67
2022/07/12 04:26:24;;;;;;;;;5.00;5.00;;;;;23.48;49.78;101112.85;110113;1265;19356;-65
2022/07/12 04:28:51;;;;;;;;;5.00;5.00;;;;;23.46;49.74;101108.05;110112;1265;22422;-65
2022/07/12 04:31:18;;;;;;;;;5.00;5.00;;;;;23.47;49.84;101109.08;110120;1267;18501;-66
2022/07/12 04:33:46;;;;;;;;;6.00;6.00;;;;;23.47;49.61;101108.02;110177;1267;18687;-66
2022/07/12 04:36:13;;;;;;;;;3.00;3.00;;;;;23.46;49.83;101105.86;110163;1267;19540;-66
2022/07/12 04:38:40;;;;;;;;;6.00;5.00;;;;;23.48;49.86;101104.65;110130;1267;18610;-67
2022/07/12 04:41:07;;;;;;;;;3.00;3.00;;;;;23.47;49.66;101105.48;110121;1266;22023;-66
2022/07/12 04:43:35;;;;;;;;;5.00;5.00;;;;;23.47;49.83;101108.22;110141;1264;21284;-65
2022/07/12 04:46:02;;;;;;;;;5.00;5.00;;;;;23.48;49.92;101113.41;110140;1267;18547;-65
2022/07/12 04:48:29;;;;;;;;;5.00;5.00;;;;;23.48;49.83;101112.31;110137;1267;18888;-66
2022/07/12 04:50:56;;;;;;;;;5.00;5.00;;;;;23.48;49.87;101119.38;110101;1267;19485;-65
2022/07/12 04:53:24;;;;;;;;;6.00;6.00;;;;;23.48;49.83;101115.37;110096;1265;18622;-64
2022/07/12 04:55:51;;;;;;;;;5.00;5.00;;;;;23.48;49.92;101110.27;110118;1267;18917;-65
2022/07/12 04:58:19;;;;;;;;;5.00;5.00;;;;;23.48;49.81;101107.67;110113;1267;19487;-66
2022/07/12 05:00:46;;;;;;;;;5.33;5.00;;;;;23.48;49.85;101104.39;110160;1267;18463;-66
2022/07/12 05:03:13;;;;;;;;;5.00;5.00;;;;;23.49;49.78;101107.60;110138;1268;18787;-65
2022/07/12 05:05:40;;;;;;;;;4.00;4.00;;;;;23.50;49.90;101105.42;110122;1267;21035;-65
2022/07/12 05:08:07;;;;;;;;;5.00;5.00;;;;;23.51;49.82;101102.61;110089;1267;18641;-67
2022/07/12 05:10:35;;;;;;;;;5.00;4.33;;;;;23.51;49.81;101106.14;110125;1267;19179;-64
2022/07/12 05:13:03;;;;;;;;;5.33;5.33;;;;;23.50;49.90;101102.73;110036;1267;19610;-67
2022/07/12 05:15:30;;;;;;;;;5.67;4.33;;;;;23.51;49.80;101103.04;110126;1267;18411;-66
2022/07/12 05:17:57;;;;;;;;;5.00;5.00;;;;;23.51;49.78;101106.57;110087;1267;18734;-65
2022/07/12 05:20:24;;;;;;;;;5.00;5.00;;;;;23.52;49.91;101107.21;110057;1267;22966;-64
2022/07/12 05:22:52;;;;;;;;;5.00;5.00;;;;;23.52;49.94;101106.45;110076;1267;18450;-66
2022/07/12 05:25:20;;;;;;;;;4.33;4.33;;;;;23.52;49.97;101104.61;110113;1267;18868;-66
2022/07/12 05:27:47;;;;;;;;;5.00;5.00;;;;;23.54;49.98;101101.17;110104;1265;22018;-66
2022/07/12 05:30:14;;;;;;;;;7.00;5.00;;;;;23.53;50.09;101106.66;110098;1265;22794;-65
2022/07/12 05:32:42;;;;;;;;;5.00;5.00;;;;;23.54;49.97;101108.47;110208;1264;18841;-64
2022/07/12 05:35:09;;;;;;;;;5.00;5.00;;;;;23.54;49.99;101106.09;110253;1265;20102;-65
2022/07/12 05:37:36;;;;;;;;;6.00;5.00;;;;;23.53;49.86;101103.58;110230;1265;18679;-66
2022/07/12 05:40:03;;;;;;;;;5.67;5.67;;;;;23.55;49.97;101102.44;110203;1264;19528;-66
2022/07/12 05:42:31;;;;;;;;;6.67;6.00;;;;;23.55;50.15;101098.69;110275;1264;20035;-66
2022/07/12 05:44:58;;;;;;;;;10.33;10.00;;;;;23.09;51.09;101097.78;110187;1265;19999;-65
2022/07/12 05:47:25;;;;;;;;;15.33;14.33;;;;;21.51;55.29;101102.50;110232;1264;18836;-65
2022/07/12 05:49:52;;;;;;;;;16.50;15.50;;;;;20.69;58.17;101105.15;110223;1264;19461;-66
2022/07/12 05:55:04;;;;;;;;;11.00;9.50;;;;;20.30;60.40;101106.81;110178;1265;18903;-66
2022/07/12 05:57:32;;;;;;;;;9.00;9.00;;;;;21.25;58.40;101102.65;110181;1264;21989;-66
2022/07/12 05:59:59;;;;;;;;;11.00;9.67;;;;;21.95;56.56;101103.13;110108;1264;18663;-65
2022/07/12 06:02:26;;;;;;;;;11.00;10.00;;;;;22.38;55.40;101103.52;110209;1265;18796;-67
2022/07/12 06:04:54;;;;;;;;;10.00;10.00;;;;;22.65;54.64;101101.79;110079;1264;19476;-65
2022/07/12 06:07:21;;;;;;;;;7.00;7.00;;;;;22.83;54.16;101104.23;110041;1265;21797;-66
2022/07/12 06:09:48;;;;;;;;;9.00;9.00;;;;;22.94;53.73;101100.73;110267;1265;18876;-66
2022/07/12 06:12:15;;;;;;;;;7.67;7.67;;;;;23.02;53.44;101095.73;110207;1264;22804;-64
2022/07/12 06:14:43;;;;;;;;;9.00;9.00;;;;;23.10;53.00;101099.51;110245;1264;18593;-65
2022/07/12 06:17:10;;;;;;;;;7.67;7.67;;;;;23.18;52.82;101095.23;110215;1264;18879;-65
2022/07/12 06:19:37;;;;;;;;;9.00;7.00;;;;;23.26;52.51;101096.22;110172;1264;19656;-67
2022/07/12 06:22:04;;;;;;;;;7.67;7.00;;;;;23.35;52.67;101092.81;110187;1263;18747;-65
2022/07/12 06:24:32;;;;;;;;;7.00;7.00;;;;;23.43;53.00;101091.88;110229;1264;18804;-65
2022/07/12 06:26:59;;;;;;;;;8.00;7.33;;;;;23.49;53.05;101084.83;110232;1264;19725;-64
2022/07/12 06:29:26;;;;;;;;;7.33;7.33;;;;;23.39;52.92;101089.42;110024;1265;21072;-65
2022/07/12 06:31:53;;;;;;;;;6.67;6.67;;;;;23.26;53.22;101084.87;110140;1265;21498;-66
2022/07/12 06:34:21;;;;;;;;;7.00;7.00;;;;;23.22;53.13;101085.10;110189;1265;19545;-65
2022/07/12 06:36:48;;;;;;;;;9.67;8.00;;;;;23.16;53.40;101079.80;110226;1264;18791;-67
2022/07/12 06:39:15;;;;;;;;;7.00;7.00;;;;;23.07;53.69;101081.45;110158;1265;19141;-65
2022/07/12 06:41:42;;;;;;;;;7.33;7.00;;;;;22.95;53.74;101079.09;110216;1265;19645;-67
2022/07/12 06:44:10;;;;;;;;;7.00;7.00;;;;;22.97;53.76;101080.64;110192;1265;18538;-66
2022/07/12 06:46:37;;;;;;;;;7.67;7.67;;;;;22.99;53.88;101081.85;110231;1264;19034;-64
2022/07/12 06:49:04;;;;;;;;;7.00;7.00;;;;;22.62;54.53;101086.67;110194;1264;19491;-64
2022/07/12 06:51:31;;;;;;;;;7.67;7.67;;;;;22.48;55.16;101079.73;110232;1265;21151;-67
2022/07/12 06:53:58;;;;;;;;;9.00;7.00;;;;;22.52;55.31;101079.43;110165;1264;18829;-65
2022/07/12 06:56:26;;;;;;;;;8.33;6.67;;;;;22.52;54.88;101074.85;110208;1265;20986;-67
2022/07/12 06:58:53;;;;;;;;;9.00;9.00;;;;;22.41;55.06;101071.73;110168;1264;18559;-66
2022/07/12 07:01:21;;;;;;;;;7.67;7.67;;;;;22.29;55.37;101077.55;110196;1265;22559;-65
2022/07/12 07:03:48;;;;;;;;;7.00;7.00;;;;;22.31;55.35;101072.58;110331;1265;19378;-64
2022/07/12 07:06:15;;;;;;;;;6.33;6.00;;;;;22.23;55.50;101073.94;110261;1264;20321;-65
2022/07/12 07:08:44;;;;;;;;;6.00;6.00;;;;;22.20;55.54;101075.39;110291;1264;22258;-65
2022/07/12 07:11:11;;;;;;;;;7.00;7.00;;;;;22.46;55.23;101075.00;110101;1264;19715;-66
2022/07/12 07:13:39;;;;;;;;;6.00;6.00;;;;;22.46;55.04;101071.92;110115;1264;20368;-66
2022/07/12 07:16:06;;;;;;;;;9.00;8.33;;;;;22.41;55.03;101070.17;110115;1265;19645;-65
2022/07/12 07:18:33;;;;;;;;;5.67;5.67;;;;;22.49;54.98;101071.98;110213;1264;20308;-66
2022/07/12 07:21:01;;;;;;;;;6.33;6.33;;;;;22.58;54.50;101069.97;110169;1265;18639;-65
2022/07/12 07:23:28;;;;;;;;;8.33;7.00;;;;;22.60;54.00;101071.42;110230;1264;19457;-65
2022/07/12 07:25:55;;;;;;;;;9.33;8.33;;;;;22.59;54.10;101063.27;110199;1264;19813;-65
2022/07/12 07:28:23;;;;;;;;;6.00;6.00;;;;;22.58;53.59;101068.38;110193;1264;21722;-66
2022/07/12 07:30:53;;;;;;;;;7.67;7.00;;;;;22.55;53.26;101063.80;110251;1264;18732;-63
2022/07/12 07:33:20;;;;;;;;;8.33;6.67;;;;;22.55;53.14;101066.84;110218;1264;19530;-66
2022/07/12 07:35:47;;;;;;;;;7.00;7.00;;;;;22.57;53.34;101075.50;110254;1264;18884;-64
2022/07/12 07:38:15;;;;;;;;;5.33;5.33;;;;;22.67;53.06;101075.14;110176;1264;18854;-68
2022/07/12 07:40:42;;;;;;;;;6.00;6.00;;;;;22.69;52.72;101076.01;109511;1264;923983;-65
2022/07/12 07:43:09;;;;;;;;;7.00;6.00;;;;;22.72;52.30;101075.30;110278;1264;18792;-66
2022/07/12 07:45:36;;;;;;;;;7.00;7.00;;;;;22.82;51.77;101072.91;110209;1264;18869;-63
2022/07/12 07:48:04;;;;;;;;;6.00;6.00;;;;;22.87;51.38;101071.59;110106;1264;23006;-64
2022/07/12 07:50:31;;;;;;;;;6.67;6.00;;;;;22.85;50.93;101071.69;110262;1264;18534;-65
2022/07/12 07:52:59;;;;;;;;;5.00;5.00;;;;;22.92;50.79;101069.40;110287;1264;18849;-64
2022/07/12 07:55:26;;;;;;;;;5.00;5.00;;;;;22.95;50.49;101068.11;110244;1265;19499;-66
2022/07/12 07:57:53;;;;;;;;;5.00;5.00;;;;;23.07;50.17;101070.17;110285;1264;20664;-69
2022/07/12 08:00:21;;;;;;;;;7.00;6.00;;;;;23.16;50.01;101068.17;110299;1265;18819;-65
2022/07/12 08:02:48;;;;;;;;;6.00;6.00;;;;;23.20;49.75;101072.06;110243;1264;19571;-67
2022/07/12 08:05:15;;;;;;;;;5.00;5.00;;;;;23.13;49.58;101069.94;110104;1265;18511;-65
2022/07/12 08:07:43;;;;;;;;;6.00;5.50;;;;;23.22;49.49;101069.58;110220;1264;22552;-65
2022/07/12 08:10:10;;;;;;;;;6.00;6.00;;;;;23.30;49.44;101067.59;110095;1265;19692;-63
2022/07/12 08:12:37;;;;;;;;;6.00;6.00;;;;;23.28;49.19;101064.23;110156;1265;18503;-64
2022/07/12 08:15:04;;;;;;;;;6.00;5.00;;;;;23.39;48.77;101062.90;110216;1264;20675;-64
2022/07/12 08:17:32;;;;;;;;;5.00;5.00;;;;;23.62;48.74;101063.18;110248;1264;19796;-63
2022/07/12 08:20:00;;;;;;;;;5.00;5.00;;;;;23.66;48.51;101062.98;110280;1264;18545;-66
2022/07/12 08:22:27;;;;;;;;;6.00;6.00;;;;;23.58;48.29;101054.91;110200;1265;18759;-65
2022/07/12 08:24:54;;;;;;;;;5.00;5.00;;;;;23.53;47.98;101057.52;110276;1265;19755;-69
2022/07/12 08:27:22;;;;;;;;;5.00;5.00;;;;;23.57;48.34;101054.98;110222;1265;20301;-66
2022/07/12 08:29:49;;;;;;;;;7.33;6.00;;;;;23.62;47.99;101060.09;110125;1264;20426;-66
2022/07/12 08:32:16;;;;;;;;;5.00;5.00;;;;;23.59;47.96;101066.55;110166;1264;19476;-65
2022/07/12 08:34:44;;;;;;;;;5.00;5.00;;;;;23.55;47.76;101065.60;110179;1265;18560;-65
2022/07/12 08:37:11;;;;;;;;;5.00;5.00;;;;;23.60;47.36;101065.71;110248;1265;18780;-64
2022/07/12 08:39:40;;;;;;;;;5.00;5.00;;;;;23.84;46.99;101062.08;110214;1265;19790;-66
2022/07/12 08:42:07;;;;;;;;;6.00;6.00;;;;;24.07;46.32;101062.09;110215;1265;18577;-64
2022/07/12 08:44:34;;;;;;;;;5.00;5.00;;;;;23.84;46.09;101060.95;110129;1264;18673;-63
2022/07/12 08:47:01;;;;;;;;;5.00;5.00;;;;;23.50;45.96;101059.27;110239;1264;19615;-61
2022/07/12 08:49:29;;;;;;;;;5.00;5.00;;;;;23.45;46.23;101065.41;110123;1265;18721;-64
2022/07/12 08:51:56;;;;;;;;;5.00;4.00;;;;;23.60;46.56;101057.38;110276;1264;21283;-66
2022/07/12 08:54:23;;;;;;;;;3.00;3.00;;;;;23.54;46.40;101062.81;110183;1264;19507;-67
2022/07/12 08:56:51;;;;;;;;;5.00;5.00;;;;;23.36;46.94;101066.64;110213;1265;18443;-64
2022/07/12 08:59:18;;;;;;;;;7.00;6.00;;;;;23.43;47.84;101064.35;110199;1265;22689;-65
2022/07/12 09:01:47;;;;;;;;;10.00;10.00;;;;;23.50;48.63;101066.91;110150;1265;22812;-64
2022/07/12 09:04:14;;;;;;;;;12.00;10.33;;;;;23.46;47.14;101066.67;110162;1265;18559;-67
2022/07/12 09:06:41;;;;;;;;;30.67;28.00;;;;;23.44;46.52;101066.27;110303;1264;18728;-66
2022/07/12 09:09:09;;;;;;;;;22.00;20.00;;;;;23.61;47.03;101061.38;110238;1265;19829;-63
2022/07/12 09:11:36;;;;;;;;;14.67;14.00;;;;;23.55;46.74;101074.05;110258;1265;19194;-63
2022/07/12 09:14:03;;;;;;;;;12.33;11.00;;;;;23.32;46.31;101068.02;110277;1264;18861;-66
2022/07/12 09:16:31;;;;;;;;;10.00;9.67;;;;;23.32;46.40;101059.85;110278;1265;22804;-65
2022/07/12 09:18:58;;;;;;;;;7.67;7.67;;;;;23.29;45.91;101060.05;110238;1265;22466;-68
2022/07/12 09:21:26;;;;;;;;;6.00;6.00;;;;;23.35;45.73;101056.98;110297;1264;18670;-70
2022/07/12 09:23:53;;;;;;;;;6.50;6.00;;;;;23.37;45.55;101057.48;110218;1264;19609;-65
2022/07/12 09:26:20;;;;;;;;;7.00;7.00;;;;;23.42;45.61;101051.81;110254;1264;18639;-65
2022/07/12 09:28:47;;;;;;;;;6.67;6.33;;;;;23.48;45.58;101050.25;110278;1264;18706;-64
2022/07/12 09:31:15;;;;;;;;;5.00;5.00;;;;;23.53;45.21;101050.73;110259;1264;20007;-66
2022/07/12 09:36:27;;;;;;;;;6.00;5.67;;;;;23.72;44.67;101052.95;110284;1264;19247;-64
2022/07/12 09:39:00;;;;;;;;;6.67;6.67;;;;;23.69;44.84;101051.14;110272;1264;19776;-65
2022/07/12 09:41:27;;;;;;;;;5.00;5.00;;;;;23.72;44.42;101053.74;110216;1264;18428;-71
2022/07/12 09:43:54;;;;;;;;;3.00;3.00;;;;;23.73;44.23;101054.15;110182;1264;21521;-66
2022/07/12 09:46:22;;;;;;;;;5.50;5.50;;;;;23.71;43.92;101053.67;110239;1264;19667;-66
2022/07/12 09:48:49;;;;;;;;;5.33;5.33;;;;;23.68;43.82;101052.77;110283;1264;18761;-66
2022/07/12 09:51:16;;;;;;;;;6.00;5.00;;;;;23.71;43.32;101049.10;110207;1264;18736;-64
2022/07/12 09:53:43;;;;;;;;;5.00;5.00;;;;;23.78;43.05;101047.92;110261;1264;19520;-64
2022/07/12 09:56:11;;;;;;;;;5.00;5.00;;;;;23.80;42.89;101043.04;110257;1264;18447;-65
2022/07/12 09:58:38;;;;;;;;;5.00;5.00;;;;;23.77;43.13;101042.45;110208;1264;20248;-66
2022/07/12 10:01:05;;;;;;;;;5.00;5.00;;;;;23.70;43.08;101041.76;110158;1264;20355;-66
2022/07/12 10:03:32;;;;;;;;;5.00;5.00;;;;;23.65;42.88;101048.20;110228;1264;18735;-65
2022/07/12 10:06:00;;;;;;;;;3.00;3.00;;;;;23.67;42.80;101046.14;110246;1265;18926;-68
2022/07/12 10:08:27;;;;;;;;;4.00;4.00;;;;;23.72;43.19;101045.52;110231;1265;19745;-65
2022/07/12 10:10:54;;;;;;;;;5.00;5.00;;;;;23.77;43.43;101045.26;110260;1265;18453;-65
2022/07/12 10:13:21;;;;;;;;;3.00;3.00;;;;;23.77;43.53;101043.15;110290;1264;21615;-66
2022/07/12 10:15:49;;;;;;;;;5.00;4.33;;;;;23.76;43.77;101050.17;110231;1264;19766;-65
2022/07/12 10:18:16;;;;;;;;;4.33;4.33;;;;;23.74;44.01;101038.84;110227;1264;19076;-65
2022/07/12 10:20:44;;;;;;;;;5.00;5.00;;;;;23.73;44.02;101031.75;110228;1265;18860;-62
2022/07/12 10:23:11;;;;;;;;;5.00;5.00;;;;;23.71;44.02;101032.23;110262;1265;21999;-66
2022/07/12 10:25:38;;;;;;;;;5.33;5.00;;;;;23.71;43.94;101029.17;110246;1265;19086;-65
2022/07/12 10:28:05;;;;;;;;;4.67;3.67;;;;;23.71;43.86;101034.58;110254;1265;19293;-67
2022/07/12 10:30:33;;;;;;;;;5.33;3.67;;;;;23.73;43.92;101033.56;110267;1264;19778;-66
2022/07/12 10:33:00;;;;;;;;;3.00;3.00;;;;;23.73;43.65;101035.04;110279;1265;18572;-64
2022/07/12 10:35:27;;;;;;;;;5.00;5.00;;;;;23.72;43.49;101033.29;110210;1264;18737;-66
2022/07/12 10:37:54;;;;;;;;;4.33;4.33;;;;;23.73;43.60;101034.86;110294;1265;20284;-64
2022/07/12 10:40:22;;;;;;;;;4.33;4.33;;;;;23.72;43.51;101034.75;110259;1264;18585;-66
2022/07/12 10:42:49;;;;;;;;;4.33;3.67;;;;;23.72;43.36;101039.27;110321;1264;19583;-66
2022/07/12 10:45:16;;;;;;;;;3.67;3.67;;;;;23.74;43.33;101033.65;110264;1264;22047;-64
2022/07/12 10:47:44;;;;;;;;;5.00;5.00;;;;;23.73;43.19;101032.80;110233;1265;22227;-65
2022/07/12 10:50:11;;;;;;;;;5.33;5.00;;;;;23.73;43.26;101026.58;110229;1265;18762;-67
2022/07/12 10:52:38;;;;;;;;;5.33;5.33;;;;;23.73;43.16;101029.85;110255;1265;19754;-66
2022/07/12 10:55:05;;;;;;;;;5.00;5.00;;;;;23.72;43.10;101031.46;110244;1264;18511;-65
2022/07/12 10:57:33;;;;;;;;;6.00;5.67;;;;;23.74;42.92;101027.55;110278;1264;22720;-65
2022/07/12 11:00:00;;;;;;;;;5.00;5.00;;;;;23.76;42.49;101020.44;110224;1264;19462;-65
2022/07/12 11:02:27;;;;;;;;;6.67;6.67;;;;;23.80;42.31;101029.02;110160;1265;18490;-65
2022/07/12 11:04:54;;;;;;;;;5.00;5.00;;;;;23.80;42.34;101031.20;110166;1265;18685;-64
2022/07/12 11:07:22;;;;;;;;;5.00;5.00;;;;;23.77;42.54;101028.08;110212;1264;22861;-66
2022/07/12 11:09:49;;;;;;;;;5.00;5.00;;;;;23.75;42.16;101020.35;110326;1264;18321;-65
2022/07/12 11:12:16;;;;;;;;;6.00;5.33;;;;;23.78;41.81;101016.62;110276;1264;22954;-67
2022/07/12 11:14:44;;;;;;;;;5.33;5.33;;;;;23.83;41.66;101013.81;110250;1265;19560;-67
2022/07/12 11:17:11;;;;;;;;;5.00;5.00;;;;;23.81;41.98;101018.09;110058;1265;18687;-65
2022/07/12 11:19:38;;;;;;;;;5.00;5.00;;;;;23.83;41.99;101011.25;110069;1265;18820;-65
2022/07/12 11:22:05;;;;;;;;;5.00;5.00;;;;;23.86;41.89;101008.13;110187;1264;19560;-65
2022/07/12 11:24:34;;;;;;;;;5.00;5.00;;;;;23.85;41.71;101010.64;110216;1264;22799;-66
2022/07/12 11:27:02;;;;;;;;;5.00;5.00;;;;;23.83;41.74;101005.60;110159;1264;26882;-64